SiktMolnbas
>≥ 10km≥ 10km ≥ 2000ft≥ 2000ft
< 10km< 10km < 2000ft< 2000ft
< 8km< 8km < 1500ft< 1500ft
< 5km< 5km < 1000ft< 1000ft
< 3km< 3km < 500ft< 500ft

Nytt 18 jan 2017:

Nytt 17 jan 2017:

ESNQ (22:20 UTC)

Kiruna flygplats

METAR

ESNQ 292220Z AUTO 19005KT 7000 OVC003/// 08/08 Q1017=

TAF

Ingen TAF hittades.

ESNG (22:20 UTC)

Gällivare (Kavaheden), Lapland Airport

METAR

BR

ESNG 292220Z AUTO 12003KT 6000 BR OVC003/// 08/08 Q1018=

TAF

Ingen TAF hittades.

ESPA (22:20 UTC)

Luleå Airport (Kallax)

METAR

FG

ESPA 292220Z AUTO 11001KT 0100 0050// R14/0400V0500N R32/0300N FG VV001 08/08 Q1020=

TAF

FG

ESPA 291730Z 2918/2922 VRB01KT 0200 FG VV001 PROB40 2918/2922 0800 VV003=

ESNL (22:20 UTC)

Lycksele flygplats

METAR

BR

ESNL 292220Z AUTO 12004KT 9999 BR FEW001/// OVC003/// 10/10 Q1018=

TAF

Ingen TAF hittades.

ESNU (22:20 UTC)

Umeå City Airport

METAR

ESNU 292220Z 00000KT 9999 OVC003 09/09 Q1019=

TAF

FG

ESNU 292030Z 2921/3006 VRB02KT 9999 OVC002 PROB40 2921/3006 0500 FG=

ESNO (22:20 UTC)

Örnsköldsvik flygplats

METAR

FG

ESNO 292220Z AUTO VRB02KT 0100 R12/0450N R30/0450N FG VV001 09/09 Q1018=

TAF

Ingen TAF hittades.

ESNK (22:20 UTC)

Kramfors-Sollefteå flygplats

METAR

ESNK 292220Z AUTO 00000KT 9999 OVC004/// 10/10 Q1018=

TAF

Ingen TAF hittades.

ESNN (22:20 UTC)

Sundsvall-Härnösands flygplats (Midlanda)

METAR

ESNN 292220Z AUTO VRB02KT 4100 FEW002/// BKN042/// OVC062/// 09/09 Q1018=

TAF

Ingen TAF hittades.

ESNZ (22:20 UTC)

Åre Östersund Airport (Frösön)

METAR

ESNZ 292220Z AUTO 14008KT 9999 FEW008/// BKN059/// OVC110/// 10/09 Q1015=

TAF

Ingen TAF hittades.

ESNS (22:20 UTC)

Skellefteå flygplats

METAR

ESNS 292220Z AUTO 00000KT 3800 FEW002/// SCT021/// BKN029/// 08/08 Q1019=

TAF

Ingen TAF hittades.

ESGT (22:20 UTC)

Trollhättan-Vänersborgs flygplats (Malöga flygplats)

METAR

ESGT 292220Z AUTO 00000KT 9999 OVC059/// 10/09 Q1017=

TAF

Ingen TAF hittades.

ESGG (22:20 UTC)

Göteborg-Landvetter flygplats

METAR

ESGG 292220Z 13006KT 9999 SCT036 OVC046 11/09 Q1017=

TAF

ESGG 291730Z 2918/3018 14005KT 9999 BKN040 PROB40 2922/3007 2000 BCFG=

ESMT (22:20 UTC)

Halmstads flygplats

METAR

ESMT 292220Z AUTO 13006KT 9999 FEW036/// SCT041/// 12/10 Q1018=

TAF

Ingen TAF hittades.

ESTA (22:20 UTC)

Ängelholm-Helsingborg flygplats

METAR

BR

ESTA 292220Z AUTO 11005KT 9000 BR NCD 10/09 Q1018=

TAF

Ingen TAF hittades.

ESTL (22:20 UTC)

Ljungbyheds flygplats

METAR

BR

ESTL 292220Z AUTO 09005KT 9000 BR NCD 09/09 Q1018=

TAF

Ingen TAF hittades.

ESMS (22:20 UTC)

Malmö Airport

METAR

FG

ESMS 292220Z 08003KT 1000 R17/P1500N R35/0700N BCFG NSC 09/09 Q1018=

TAF

FG

ESMS AMD 291856Z 2918/3018 15007KT 9999 SCT020 TEMPO 2918/2922 2500 BR PROB40 2922/3008 0200 FG VV002=

ESMK (22:20 UTC)

Kristianstad Airport

METAR

FG

ESMK 292220Z AUTO /////KT 0250 R01/P2000N R19/0650N BCFG FEW001/// SCT001/// 06/06 Q1018=

TAF

Ingen TAF hittades.

ESDF (22:20 UTC)

Ronneby flygplats

METAR

ESDF 292220Z AUTO 01006KT 9999 NCD 06/06 Q1018=

TAF

Ingen TAF hittades.

ESMQ (22:20 UTC)

Kalmar Airport

METAR

FG

ESMQ 292220Z AUTO 34002KT 0050 R16/0650U R34/0350N FG VV000 05/05 Q1018=

TAF

Ingen TAF hittades.

ESMX (22:20 UTC)

Växjö, Smaland Airport

METAR

FG

ESMX 292220Z AUTO 00000KT 9999 BCFG NCD 06/06 Q1018=

TAF

Ingen TAF hittades.

ESGJ (22:20 UTC)

Jönköping Airport

METAR

ESGJ 292220Z 00000KT CAVOK 04/03 Q1018=

TAF

FG

ESGJ 292030Z 2921/3001 VRB02KT CAVOK TEMPO 2921/3001 0300 FG VV002=

ESSA (22:20 UTC)

Stockholm-Arlanda flygplats

METAR

ESSA 292220Z 16004KT 8000 OVC004 13/12 Q1018 NOSIG=

TAF

BR

ESSA 291730Z 2918/3018 VRB01KT 7000 SCT004 BKN020 PROB40 2918/3008 4000 BR BKN004=

ESSB (22:20 UTC)

Stockholm-Bromma flygplats

METAR

ESSB 292220Z AUTO 17001KT 7000 FEW012/// OVC043/// 12/12 Q1018=

TAF

BR

ESSB 292030Z 2921/3006 VRB02KT 9999 SCT010 BKN015 PROB40 2921/3006 4000 BR BKN006=

ESKN (22:20 UTC)

Stockholm-Skavsta flygplats

METAR

FG

ESKN 292220Z 00000KT 7000 BCFG BKN047 11/11 Q1018=

TAF

ESKN AMD 292021Z 2920/3018 VRB02KT 8000 SCT040 PROB40 2920/3007 0500 BCFG BKN003=

ESSP (22:20 UTC)

Norrköping flygplats

METAR

FG

ESSP 292220Z AUTO 00000KT 0100 R09/0800N R27/0375N FG NCD 07/07 Q1018=

TAF

Ingen TAF hittades.

ESSL (22:20 UTC)

Linköping - SAAB Flygplats

METAR

BR

ESSL 292220Z AUTO 00000KT 0250 R11/P2000N R29/1700D BR NCD 06/06 Q1018=

TAF

Ingen TAF hittades.

ESSV (22:20 UTC)

Visby flygplats

METAR

ESSV 292220Z AUTO 13002KT 9999 NCD 05/05 Q1019=

TAF

ESSV 291730Z 2918/2922 22003KT CAVOK=

ESOW (22:20 UTC)

Stockholm-Västerås flygplats

METAR

BR

ESOW 292220Z AUTO 03002KT 1100 R01/P2000N R19/P2000N BR OVC003/// 13/12 Q1018=

TAF

Ingen TAF hittades.

ESOE (22:20 UTC)

Örebro flygplats

METAR

FG

ESOE 292220Z AUTO 00000KT 0400 R01/1100U R19/1400D FG OVC051/// 11/10 Q1018=

TAF

FG

ESOE AMD 291830Z 2918/2921 VRB03KT 5000 BKN045 BECMG 2918/2920 0200 FG VV002=

ESOK (22:20 UTC)

Karlstad Airport

METAR

BR

ESOK 292220Z AUTO 15003KT 1000 R03/P1500N R21/P1500N BR BKN053/// 11/11 Q1018=

TAF

Ingen TAF hittades.

ESSD (22:20 UTC)

Borlänge, Dala Airport

METAR

FG

ESSD 292220Z AUTO 12004KT 0900 R32/P2000N FG OVC002/// 11/11 Q1018=

TAF

Ingen TAF hittades.

ESGR (22:20 UTC)

Skövde flygplats

METAR

ESGR 292220Z AUTO VRB03KT 9999 OVC053/// 06/// Q1018=

TAF

Ingen TAF hittades.

ESIB (22:20 UTC)

Såtenäs

METAR

ESIB 292220Z AUTO 12006KT 9999 FEW042/// OVC060/// 11/10 Q1017=

TAF

Ingen TAF hittades.

ESNV (22:20 UTC)

Vilhelmina flygplats

METAR

DZ

ESNV 292220Z AUTO VRB01KT 9999 DZ FEW007/// OVC057/// 08/05 Q1017=

TAF

Ingen TAF hittades.

ESST (22:20 UTC)

Torsby flygplats (Fryklanda)

METAR

BR

ESST 292220Z AUTO 15003KT 1200 R16/P2000N R34/P2000N BR BKN003/// OVC029/// 12/12 Q1017=

TAF

Ingen TAF hittades.

ESUT (22:20 UTC)

Hemavans flygplats

METAR

ESUT 292220Z AUTO 16009KT 9999 OVC016/// 09/07 Q1015=

TAF

Ingen TAF hittades.

ESNX (22:20 UTC)

Arvidsjaur flygplats

METAR

FG

ESNX 292220Z AUTO 10004KT 0200 R30/0800N FG OVC001/// 09/08 Q1018=

TAF

Ingen TAF hittades.

ESIA (22:20 UTC)

Karlsborg

METAR

FG

ESIA 292220Z AUTO 00000KT 0100 FG FEW001/// 07/07 Q1018=

TAF

Ingen TAF hittades.

ESUP (22:20 UTC)

Pajala

METAR

BR

ESUP 292220Z AUTO 16003KT 2500 BR OVC001/// 09/09 Q1019=

TAF

Ingen TAF hittades.

ESPE (22:20 UTC)

Vidsel

METAR

BR

ESPE 292220Z AUTO 12002KT 1300 1200// R11/P2000N R29/P2000N BR VV005 08/08 Q1019=

TAF

Ingen TAF hittades.

ESCM (22:20 UTC)

Uppsala

METAR

FG

ESCM 292220Z AUTO 36002KT 0450 0400// R03/1200U R21/1200N FG VV002 12/12 Q1018=

TAF

Ingen TAF hittades.

ESKM (22:20 UTC)

Mora/Siljan

METAR

BR

ESKM 292220Z AUTO 12004KT 9000 R16/P2000N R34///// BR BKN003/// OVC007/// 11/11 Q1017=

TAF

Ingen TAF hittades.

EKRN (21:50 UTC)

Bornholm Airport

METAR

EKRN 292150Z AUTO 05003KT 9999 NCD 11/11 Q1018=

TAF

EKRN 291413Z 2915/2920 16006KT 9999 FEW030=

EFIV (22:20 UTC)

Ivalo Airport

METAR

EFIV 292220Z AUTO 21005KT 9999 OVC009 10/09 Q1019=

TAF

Ingen TAF hittades.

EFKT (22:20 UTC)

Kittilä Airport

METAR

EFKT 292220Z AUTO 17003KT 6000 OVC003 09/09 Q1019=

TAF

Ingen TAF hittades.

EFRO (22:20 UTC)

Rovaniemi Airport

METAR

EFRO 292220Z AUTO 16005KT CAVOK 08/08 Q1020=

TAF

DZFG

EFRO 292036Z 2921/3021 14005KT CAVOK BECMG 2921/2923 1000 BR BKN002 TEMPO 2923/3008 0200 FG VV001 BECMG 3008/3010 9999 NSW BKN015 TEMPO 3015/3017 BKN008 BECMG 3017/3019 0300 FG VV001 TEMPO 3019/3021 2000 -DZ OVC002=

EFKE (22:20 UTC)

Kemi-Tornio Airport

METAR

EFKE 292220Z AUTO 14003KT 110V170 9999 4800 NSC 06/06 Q1020=

TAF

Ingen TAF hittades.

EFKS (22:20 UTC)

Kuusamo Airport

METAR

BR

EFKS 292220Z AUTO 07002KT 2600 BR NCD 04/04 Q1021=

TAF

EFKS AMD 292036Z 2920/2921 VRB02KT CAVOK TEMPO 2920/2921 1000 BCFG=

EFOU (22:20 UTC)

Oulu Airport

METAR

EFOU 292220Z AUTO 17004KT 9999 BKN031 08/08 Q1020=

TAF

EFOU 292036Z 2921/3021 13004KT CAVOK PROB30 3001/3005 1000 BCFG TEMPO 3009/3016 BKN008=

EFKI (22:20 UTC)

Kajaani Airport

METAR

EFKI 292220Z 17004KT 9000 FEW029 07/07 Q1021=

TAF

BR

EFKI AMD 292154Z 2921/3006 15003KT 9999 SCT025 TEMPO 2921/3004 2500 BR=

EFKK (22:20 UTC)

Kokkola-Pietarsaari/Kruunupyy Airport

METAR

EFKK 292220Z AUTO 14005KT 9999 BKN029 12/11 Q1020=

TAF

Ingen TAF hittades.

EFVA (22:20 UTC)

Vaasa Airport

METAR

EFVA 292220Z AUTO 13005KT 9999 OVC032 13/11 Q1019=

TAF

BR

EFVA 292025Z 2921/3021 13004KT 9999 BKN040 PROB40 2922/3002 4000 BR BKN005 BECMG 3002/3004 BKN008 TEMPO 3002/3008 4000 BR BECMG 3008/3010 BKN040=

EFKU (22:20 UTC)

Kuopio Airport

METAR

BR

EFKU 292220Z AUTO 13004KT 3700 BR OVC040 11/10 Q1022=

TAF

BR

EFKU 292036Z 2921/3021 13004KT 9999 BKN035 PROB30 2921/3001 4000 BR TEMPO 3003/3010 BKN005=

EFJY (22:20 UTC)

Jyväskylä Airport

METAR

EFJY 292220Z AUTO 14004KT 9999 BKN012 OVC034 11/10 Q1021=

TAF

FG

EFJY 292025Z 2921/3021 13003KT 9999 BKN030 TEMPO 2921/2924 2000 BR BKN005 BECMG 3000/3002 2000 BR BKN005 PROB40 3002/3006 0500 FG VV002 BECMG 3007/3009 6000 NSW BKN010 BECMG 3009/3011 9999 BKN015=

EFTP (22:20 UTC)

Tampere-Pirkkala Airport

METAR

DZ

EFTP 292220Z AUTO 14004KT 3800 -DZ OVC003 12/12 Q1020=

TAF

FG

EFTP AMD 292155Z 2921/3021 13004KT 9999 BKN004 BECMG 2922/2924 3000 BR BKN006 PROB30 3000/3006 0800 FG VV002 BECMG 3008/3010 9999 NSW BKN015=

EFPO (22:20 UTC)

Pori Airport

METAR

EFPO 292220Z AUTO 14004KT 9999 BKN007 OVC045 12/12 Q1019=

TAF

Ingen TAF hittades.

EFTU (22:20 UTC)

Turku Airport

METAR

EFTU 292220Z AUTO 16003KT 120V180 9999 0400 R26/P2000U FEW006 12/11 Q1020=

TAF

BR

EFTU 292027Z 2921/3021 14005KT 9999 BKN004 BECMG 2921/2923 FEW003 BKN030 TEMPO 2923/3008 2000 BR BKN003 PROB30 2923/3007 0800 BCFG PROB40 3018/3021 BKN013=

EFHK (22:20 UTC)

Helsinki-Vantaa Airport

METAR

EFHK 292220Z 08004KT 9999 BKN008 BKN014 12/12 Q1020 TEMPO SCT008 BKN020=

TAF

Ingen TAF hittades.

EFMA (22:20 UTC)

Mariehamn Airport

METAR

EFMA 292220Z AUTO 18009KT CAVOK 13/12 Q1019=

TAF

BR

EFMA 292027Z 2921/3006 18007KT 9999 FEW005 SCT020 PROB40 TEMPO 2921/2924 3000 BR BKN003 TEMPO 3004/3006 BKN013=

EKSB (21:50 UTC)

Sønderborg Airport

METAR

EKSB 292150Z AUTO 19003KT 9999NDV ///////// 15/11 Q1015=

TAF

Ingen TAF hittades.

EKSP (22:20 UTC)

Vojens Airport

METAR

EKSP 292220Z 20005KT 9999 SCT030 BKN072 13/11 Q1015=

TAF

RABR

EKSP 292015Z 2921/3021 15006KT 9999 BKN030 TEMPO 2921/2923 4000 -RA BR BKN008 TEMPO 2923/3008 1200 RA BKN002 TEMPO 3008/3015 6000 -RA BKN012=

EKEB (21:50 UTC)

Esbjerg Airport

METAR

EKEB 292150Z AUTO 14008KT 6000 BKN007/// 13/12 Q1015=

TAF

RABR

EKEB AMD 292003Z 2920/2922 17010KT 9999 BKN015 BECMG 2920/2922 3000 -RADZ BR BKN005=

EKYT (21:50 UTC)

Aalborg Airport

METAR

EKYT 292150Z AUTO 14006KT 9999 OVC075/// 13/10 Q1015=

TAF

RABR

EKYT 292015Z 2921/3021 15008KT 9999 SCT025 BKN060 TEMPO 3005/3010 3000 -RADZ BR BKN005 TEMPO 3010/3018 6000 -RA BKN012=

EKKA (22:20 UTC)

Karup Airport

METAR

EKKA 292220Z AUTO 14004KT 9999 OVC069/// 13/11 Q1015=

TAF

RABR

EKKA 292015Z 2921/3021 15006KT 9999 SCT020 BKN080 TEMPO 2923/3008 20005KT 2000 -RADZ BR BKN004 TEMPO 3008/3015 6000 -RA BKN012=

EKBI (21:50 UTC)

Billund Airport

METAR

EKBI 292150Z AUTO 13004KT 9999 BKN026/// OVC064/// 13/11 Q1015=

TAF

RABR

EKBI 291707Z 2918/3018 14006KT 9999 BKN020 BECMG 2922/2924 4500 -RADZ BR BKN008 TEMPO 3000/3007 1200 BKN003 BECMG 3007/3009 9000 NSW BKN020 TEMPO 3009/3018 BKN012=

EKVD (21:50 UTC)

Kolding Airport

METAR

EKVD 292150Z AUTO 17004KT 140V200 //// ///////// 14/12 Q1015=

TAF

Ingen TAF hittades.

EKCH (21:50 UTC)

Copenhagen Airport, Kastrup

METAR

EKCH 292150Z AUTO 14007KT 9999 NCD 14/12 Q1018 NOSIG=

TAF

EKCH 291707Z 2918/3018 15008KT 9999 SCT020=

EKRK (21:50 UTC)

Copenhagen Airport, Roskilde

METAR

BR

EKRK 292150Z AUTO 13005KT 2800 BR SCT044/// 11/11 Q1017=

TAF

EKRK AMD 292159Z 2922/3006 14008KT 5000 MIFG FEW045 TEMPO 2922/3006 0500 BCFG=

ENRY (22:20 UTC)

Moss flygplats, Rygge

METAR

ENRY 292220Z AUTO 11006KT 9999NDV OVC062/// 11/10 Q1017=

TAF

DZFG

ENRY AMD 292055Z 2920/3018 10007KT 6000 FEW010 BKN015 TEMPO 2920/3005 0150 FG BKN002 BECMG 3006/3008 BKN008 PROB30 3007/3014 4000 DZ OVC004 BECMG 3013/3015 BKN020=

ENGM (22:20 UTC)

Oslo flygplats, Gardermoen

METAR

BR

ENGM 292220Z 14003KT 110V170 5000 BR FEW001 BKN007 10/10 Q1017=

TAF

DZFG

ENGM AMD 291846Z 2918/3018 VRB05KT 8000 SCT006 BKN012 TEMPO 2919/3004 0700 FG BKN002 TEMPO 3004/3013 4000 DZRA BR OVC004 BECMG 3013/3015 BKN015=

ENTO (22:20 UTC)

Sandefjord flygplats, Torp

METAR

ENTO 292220Z AUTO 14007KT 9999 FEW011/// SCT031/// BKN042/// 13/13 Q1016=

TAF

RAFG

ENTO AMD 292220Z 2922/3018 16008KT 9999 FEW010 BKN040 PROB40 2922/3005 0700 FG BKN002 TEMPO 3005/3014 2500 RADZ BR OVC003=

ENCN (22:20 UTC)

Kristiansand flygplats, Kjevik

METAR

DZ

ENCN 292220Z AUTO 08003KT 050V140 2600 DZ VV017 12/12 Q1014 REDZ=

TAF

RA

ENCN AMD 291948Z 2919/2922 07005KT 6000 -RA BKN007 TEMPO 2919/2922 2000 DZRA BKN004=

ENZV (22:20 UTC)

Stavanger-Sola flygplats

METAR

RA

ENZV 292220Z 33002KT 5000 -RADZ SCT025 BKN031 OVC038 12/12 Q1012=

TAF

RABR

ENZV 291700Z 2918/3018 17008KT 9999 FEW010 BKN030 TEMPO 2918/3003 4000 RADZ BR BKN010 TEMPO 3010/3018 16020G30KT=

ENHD (22:20 UTC)

Haugesund flygplats, Karmøy

METAR

ENHD 292220Z AUTO 17006KT 9999 FEW029/// BKN059/// 13/12 Q1012 RERA=

TAF

RABR

ENHD 291400Z 2915/2920 16008KT 9999 -RA FEW008 BKN015 TEMPO 2915/2920 4000 RADZ BR BKN006=

ENBR (22:20 UTC)

Bergen flygplats, Flesland

METAR

ENBR 292220Z 04003KT 9999 FEW019 BKN044 11/10 Q1012 RERA RMK WIND 1200FT 12008KT=

TAF

RABR

ENBR 291700Z 2918/3018 VRB07KT 8000 -RA SCT007 BKN015 TEMPO 2918/2920 3000 RADZ BR BKN003 TEMPO 2920/3009 4000 RADZ BKN008 BECMG 3004/3006 16010KT TEMPO 3006/3014 16015G25KT=

ENML (21:50 UTC)

Molde flygplats, Årø

METAR

RA

ENML 292150Z AUTO VRB01KT 9999NDV -RA SCT008/// OVC011/// 11/11 Q1012=

TAF

RA

ENML 291400Z 2915/2920 VRB05KT 9999 -RA FEW005 SCT012 BKN020 PROB40 TEMPO 2915/2920 BKN008=

ENKB (21:50 UTC)

Kristiansund flygplats, Kvernberget

METAR

RA

ENKB 292150Z AUTO 00000KT 4100 -RA FEW002/// 11/10 Q1011 RMK WIND 745FT 15008KT=

TAF

RABR

ENKB 291400Z 2915/2920 04008KT 8000 -RADZ SCT008 BKN015 TEMPO 2915/2920 3000 -DZ BR OVC005=

ENRO (22:20 UTC)

Røros flygplats

METAR

ENRO 292220Z AUTO VRB05KT 9999NDV SCT014/// BKN020/// BKN025/// 11/10 Q1014=

TAF

Ingen TAF hittades.

ENVA (22:20 UTC)

Trondheim flygplats, Værnes

METAR

ENVA 292220Z 10003KT 080V140 CAVOK 15/10 Q1012 RMK WIND 670FT 15010KT=

TAF

ENVA 291700Z 2918/3018 VRB07KT 9999 FEW045 BECMG 3009/3011 16010KT=

ENOL (22:20 UTC)

Ørland flygplats

METAR

DZ

ENOL 292220Z 11007KT 9999 -DZ FEW012 BKN085 12/11 Q1011=

TAF

ENOL 291700Z 2918/3018 13008KT 9999 FEW008 BKN080=

ENBN (21:50 UTC)

Brønnøysund flygplats, Brønnøy

METAR

ENBN 292150Z VRB04KT CAVOK 12/10 Q1014=

TAF

ENBN 292000Z 2921/3006 VRB05KT 9999 FEW012 BKN050 BECMG 2921/2923 16010KT=

ENBO (22:20 UTC)

Bodö flygplats

METAR

ENBO 292220Z 07006KT 9999 FEW004 09/08 Q1015=

TAF

BR

ENBO 291700Z 2918/3018 09008KT 9999 FEW004 BKN006 TEMPO 2918/2921 4000 BR SCT006 BKN020 BECMG 2918/2921 FEW008 SCT020=

ENAN (22:20 UTC)

Andøya flygplats

METAR

ENAN 292220Z AUTO 35006KT 320V020 4600 OVC001/// 10/09 Q1016=

TAF

DZFG

ENAN 291700Z 2918/3018 25009KT 9999 FEW008 BKN030 TEMPO 2918/2924 4000 BR -DZ SCT004 BKN008 BECMG 3000/3003 03010KT PROB30 3000/3014 0500 FG VV001 BECMG 3006/3009 17008KT=

ENEV (21:50 UTC)

Harstad-Narvik flygplats

METAR

FG

ENEV 292150Z AUTO 00000KT 0550 R17/1900N BCFG NCD 08/08 Q1016 RMK WIND 1400FT 16004KT=

TAF

ENEV 291700Z 2918/2921 21008KT 9999 FEW030 BKN040 TEMPO 2918/2921 BKN014=

ENDU (22:20 UTC)

Bardufoss flygplats

METAR

BR

ENDU 292220Z AUTO VRB01KT 4300 BR BKN120/// 05/05 Q1017 RMK WIND 1100FT 01003KT WIND 2200FT 03001KT=

TAF

ENDU 291700Z 2918/3018 VRB05KT 9999 FEW035 SCT060 BKN120 PROB30 3000/3006 1200 PRFG=

ENTC (22:20 UTC)

Tromsø flygplats

METAR

ENTC 292220Z 04003KT 9999 FEW022 BKN100 10/09 Q1017 RERA RMK WIND 2600FT 20007KT=

TAF

RAFG

ENTC 291700Z 2918/3018 VRB05KT 9999 BKN040 TEMPO 2919/3001 -RA BKN014 PROB30 2923/3006 0500 FG VV001=

ENAT (21:50 UTC)

Alta flygplats

METAR

ENAT 292150Z 17006KT 150V210 CAVOK 09/06 Q1018 RMK WIND 700FT 16010KT=

TAF

ENAT 291700Z 2918/2922 16008KT CAVOK=

ENNA (21:50 UTC)

Lakselv flygplats

METAR

ENNA 292150Z AUTO 17011KT 9999 NCD 08/07 Q1018 RMK WIND 1800FT 17010KT=

TAF

ENNA 291700Z 2918/3018 18012KT 9999 FEW020=

ENHF (21:50 UTC)

Hammerfest flygplats

METAR

RA

ENHF 292150Z VRB01KT 9999 -RA FEW047 10/06 Q1017 RMK WIND 1254FT 25007KT=

TAF

ENHF 292000Z 2921/3006 22003KT 9999 BKN030=

ENKR (21:50 UTC)

Kirkenes Airport, Høybuktmoen

METAR

ENKR 292150Z 20009KT 9999 BKN018 10/09 Q1018 RMK WIND 731FT 23013KT=

TAF

BR

ENKR 292000Z 2921/3006 21008KT 9999 BKN015 TEMPO 2921/3006 4500 BR BKN008=

ENST (21:50 UTC)

Sandnessjøen Airport, Stokka

METAR

ENST 292150Z VRB01KT 9999 SCT045 10/09 Q1014 RMK WIND 300FT 03002KT=

TAF

Ingen TAF hittades.

ENSB (21:50 UTC)

Svalbard Airport, Longyear

METAR

RA

ENSB 292150Z 22004KT 130V290 9999 -RA FEW015 BKN025 08/04 Q1001 RMK WIND 1400FT 22016KT=

TAF

RA

ENSB AMD 291908Z 2919/3018 12015KT 9999 -RA FEW010 BKN030 TEMPO 2919/2921 14025G35KT RA BECMG 2919/2921 23012KT TEMPO 2919/3004 23020G35KT 4500 -DZRA BKN012=